sensor_id;sensor_type;location;lat;lon;timestamp;P1;durP1;ratioP1;P2;durP2;ratioP2
66523;SDS011;53350;52.210;5.160;2023-02-20T00:01:22;19.95;;;7.40;;
66523;SDS011;53350;52.210;5.160;2023-02-20T00:03:49;14.35;;;7.47;;
66523;SDS011;53350;52.210;5.160;2023-02-20T00:06:16;16.67;;;7.88;;
66523;SDS011;53350;52.210;5.160;2023-02-20T00:08:42;16.65;;;8.63;;
66523;SDS011;53350;52.210;5.160;2023-02-20T00:11:09;19.65;;;8.50;;
66523;SDS011;53350;52.210;5.160;2023-02-20T00:13:35;15.20;;;7.70;;
66523;SDS011;53350;52.210;5.160;2023-02-20T00:16:02;17.27;;;8.80;;
66523;SDS011;53350;52.210;5.160;2023-02-20T00:18:29;14.57;;;8.10;;
66523;SDS011;53350;52.210;5.160;2023-02-20T00:20:56;19.27;;;8.25;;
66523;SDS011;53350;52.210;5.160;2023-02-20T00:23:22;20.13;;;8.70;;
66523;SDS011;53350;52.210;5.160;2023-02-20T00:25:49;17.80;;;8.18;;
66523;SDS011;53350;52.210;5.160;2023-02-20T00:28:15;16.02;;;8.60;;
66523;SDS011;53350;52.210;5.160;2023-02-20T00:30:41;15.52;;;7.88;;
66523;SDS011;53350;52.210;5.160;2023-02-20T00:33:08;21.52;;;9.43;;
66523;SDS011;53350;52.210;5.160;2023-02-20T00:35:35;18.25;;;9.00;;
66523;SDS011;53350;52.210;5.160;2023-02-20T00:38:02;17.60;;;9.13;;
66523;SDS011;53350;52.210;5.160;2023-02-20T00:40:29;17.02;;;8.60;;
66523;SDS011;53350;52.210;5.160;2023-02-20T00:42:55;15.80;;;8.45;;
66523;SDS011;53350;52.210;5.160;2023-02-20T00:45:22;27.40;;;9.20;;
66523;SDS011;53350;52.210;5.160;2023-02-20T00:47:48;16.35;;;9.20;;
66523;SDS011;53350;52.210;5.160;2023-02-20T00:50:15;18.83;;;8.82;;
66523;SDS011;53350;52.210;5.160;2023-02-20T00:52:43;19.38;;;9.25;;
66523;SDS011;53350;52.210;5.160;2023-02-20T00:55:10;18.10;;;9.27;;
66523;SDS011;53350;52.210;5.160;2023-02-20T00:57:37;13.52;;;7.78;;
66523;SDS011;53350;52.210;5.160;2023-02-20T01:00:04;21.08;;;9.13;;
66523;SDS011;53350;52.210;5.160;2023-02-20T01:02:32;14.70;;;8.13;;
66523;SDS011;53350;52.210;5.160;2023-02-20T01:04:58;17.45;;;8.65;;
66523;SDS011;53350;52.210;5.160;2023-02-20T01:07:25;18.55;;;8.60;;
66523;SDS011;53350;52.210;5.160;2023-02-20T01:09:52;15.15;;;9.30;;
66523;SDS011;53350;52.210;5.160;2023-02-20T01:12:19;18.30;;;8.73;;
66523;SDS011;53350;52.210;5.160;2023-02-20T01:14:45;16.15;;;7.47;;
66523;SDS011;53350;52.210;5.160;2023-02-20T01:17:12;15.27;;;8.48;;
66523;SDS011;53350;52.210;5.160;2023-02-20T01:19:38;15.63;;;8.52;;
66523;SDS011;53350;52.210;5.160;2023-02-20T01:22:06;16.95;;;8.77;;
66523;SDS011;53350;52.210;5.160;2023-02-20T01:24:33;19.80;;;9.13;;
66523;SDS011;53350;52.210;5.160;2023-02-20T01:27:01;20.08;;;8.65;;
66523;SDS011;53350;52.210;5.160;2023-02-20T01:29:27;18.23;;;8.55;;
66523;SDS011;53350;52.210;5.160;2023-02-20T01:31:54;15.55;;;8.57;;
66523;SDS011;53350;52.210;5.160;2023-02-20T01:34:20;18.80;;;9.35;;
66523;SDS011;53350;52.210;5.160;2023-02-20T01:36:48;17.63;;;8.73;;
66523;SDS011;53350;52.210;5.160;2023-02-20T01:39:16;24.55;;;9.93;;
66523;SDS011;53350;52.210;5.160;2023-02-20T01:41:43;18.60;;;8.68;;
66523;SDS011;53350;52.210;5.160;2023-02-20T01:44:18;22.13;;;9.38;;
66523;SDS011;53350;52.210;5.160;2023-02-20T01:46:48;21.23;;;8.85;;
66523;SDS011;53350;52.210;5.160;2023-02-20T01:49:18;25.27;;;9.80;;
66523;SDS011;53350;52.210;5.160;2023-02-20T01:51:59;19.67;;;9.48;;
66523;SDS011;53350;52.210;5.160;2023-02-20T01:54:30;20.92;;;10.15;;
66523;SDS011;53350;52.210;5.160;2023-02-20T01:56:59;21.40;;;10.05;;
66523;SDS011;53350;52.210;5.160;2023-02-20T01:59:32;24.55;;;10.30;;
66523;SDS011;53350;52.210;5.160;2023-02-20T02:02:02;22.13;;;10.07;;
66523;SDS011;53350;52.210;5.160;2023-02-20T02:04:29;21.77;;;10.55;;
66523;SDS011;53350;52.210;5.160;2023-02-20T02:06:56;19.35;;;10.15;;
66523;SDS011;53350;52.210;5.160;2023-02-20T02:09:27;24.23;;;11.40;;
66523;SDS011;53350;52.210;5.160;2023-02-20T02:14:28;28.20;;;14.00;;
66523;SDS011;53350;52.210;5.160;2023-02-20T02:17:04;31.67;;;14.35;;
66523;SDS011;53350;52.210;5.160;2023-02-20T02:20:01;34.30;;;15.97;;
66523;SDS011;53350;52.210;5.160;2023-02-20T02:22:49;28.65;;;14.98;;
66523;SDS011;53350;52.210;5.160;2023-02-20T02:25:46;29.45;;;16.02;;
66523;SDS011;53350;52.210;5.160;2023-02-20T02:31:31;33.83;;;16.60;;
66523;SDS011;53350;52.210;5.160;2023-02-20T02:34:42;33.38;;;17.38;;
66523;SDS011;53350;52.210;5.160;2023-02-20T02:37:25;36.85;;;16.48;;
66523;SDS011;53350;52.210;5.160;2023-02-20T02:39:58;28.52;;;18.00;;
66523;SDS011;53350;52.210;5.160;2023-02-20T02:42:30;38.10;;;18.83;;
66523;SDS011;53350;52.210;5.160;2023-02-20T02:47:39;35.47;;;17.50;;
66523;SDS011;53350;52.210;5.160;2023-02-20T02:50:11;37.78;;;19.92;;
66523;SDS011;53350;52.210;5.160;2023-02-20T02:52:43;45.00;;;19.88;;
66523;SDS011;53350;52.210;5.160;2023-02-20T02:55:14;41.58;;;21.65;;
66523;SDS011;53350;52.210;5.160;2023-02-20T02:57:43;42.25;;;22.75;;
66523;SDS011;53350;52.210;5.160;2023-02-20T03:00:11;37.95;;;21.38;;
66523;SDS011;53350;52.210;5.160;2023-02-20T03:02:42;35.55;;;19.77;;
66523;SDS011;53350;52.210;5.160;2023-02-20T03:05:12;47.60;;;21.60;;
66523;SDS011;53350;52.210;5.160;2023-02-20T03:07:45;43.05;;;21.08;;
66523;SDS011;53350;52.210;5.160;2023-02-20T03:10:15;46.17;;;22.20;;
66523;SDS011;53350;52.210;5.160;2023-02-20T03:12:46;41.92;;;21.85;;
66523;SDS011;53350;52.210;5.160;2023-02-20T03:15:18;44.33;;;23.02;;
66523;SDS011;53350;52.210;5.160;2023-02-20T03:18:15;44.63;;;22.98;;
66523;SDS011;53350;52.210;5.160;2023-02-20T03:20:48;39.08;;;18.38;;
66523;SDS011;53350;52.210;5.160;2023-02-20T03:23:21;34.05;;;17.75;;
66523;SDS011;53350;52.210;5.160;2023-02-20T03:25:52;43.90;;;24.50;;
66523;SDS011;53350;52.210;5.160;2023-02-20T03:28:21;42.08;;;22.80;;
66523;SDS011;53350;52.210;5.160;2023-02-20T03:30:53;47.10;;;24.73;;
66523;SDS011;53350;52.210;5.160;2023-02-20T03:33:27;39.75;;;23.35;;
66523;SDS011;53350;52.210;5.160;2023-02-20T03:36:18;38.13;;;20.33;;
66523;SDS011;53350;52.210;5.160;2023-02-20T03:39:11;47.10;;;21.85;;
66523;SDS011;53350;52.210;5.160;2023-02-20T03:42:00;36.42;;;21.27;;
66523;SDS011;53350;52.210;5.160;2023-02-20T03:44:48;35.95;;;19.63;;
66523;SDS011;53350;52.210;5.160;2023-02-20T03:47:16;41.55;;;21.23;;
66523;SDS011;53350;52.210;5.160;2023-02-20T03:49:45;33.83;;;19.52;;
66523;SDS011;53350;52.210;5.160;2023-02-20T03:52:14;47.80;;;23.30;;
66523;SDS011;53350;52.210;5.160;2023-02-20T03:54:43;40.25;;;22.15;;
66523;SDS011;53350;52.210;5.160;2023-02-20T03:57:11;39.15;;;21.83;;
66523;SDS011;53350;52.210;5.160;2023-02-20T03:59:41;40.75;;;21.38;;
66523;SDS011;53350;52.210;5.160;2023-02-20T04:02:12;38.08;;;21.38;;
66523;SDS011;53350;52.210;5.160;2023-02-20T04:04:43;41.33;;;20.38;;
66523;SDS011;53350;52.210;5.160;2023-02-20T04:07:14;38.85;;;17.10;;
66523;SDS011;53350;52.210;5.160;2023-02-20T04:09:45;28.77;;;17.60;;
66523;SDS011;53350;52.210;5.160;2023-02-20T04:12:13;42.45;;;21.52;;
66523;SDS011;53350;52.210;5.160;2023-02-20T04:14:44;39.40;;;21.23;;
66523;SDS011;53350;52.210;5.160;2023-02-20T04:17:13;35.55;;;17.95;;
66523;SDS011;53350;52.210;5.160;2023-02-20T04:19:44;39.38;;;17.63;;
66523;SDS011;53350;52.210;5.160;2023-02-20T04:22:12;33.20;;;16.92;;
66523;SDS011;53350;52.210;5.160;2023-02-20T04:24:43;36.28;;;16.40;;
66523;SDS011;53350;52.210;5.160;2023-02-20T04:27:17;38.15;;;17.70;;
66523;SDS011;53350;52.210;5.160;2023-02-20T04:29:43;28.83;;;13.07;;
66523;SDS011;53350;52.210;5.160;2023-02-20T04:32:10;27.35;;;14.23;;
66523;SDS011;53350;52.210;5.160;2023-02-20T04:34:36;29.33;;;13.75;;
66523;SDS011;53350;52.210;5.160;2023-02-20T04:37:04;26.40;;;11.70;;
66523;SDS011;53350;52.210;5.160;2023-02-20T04:39:33;28.88;;;14.10;;
66523;SDS011;53350;52.210;5.160;2023-02-20T04:42:01;22.75;;;10.35;;
66523;SDS011;53350;52.210;5.160;2023-02-20T04:44:27;21.63;;;9.02;;
66523;SDS011;53350;52.210;5.160;2023-02-20T04:46:58;22.05;;;8.90;;
66523;SDS011;53350;52.210;5.160;2023-02-20T04:49:25;21.35;;;10.20;;
66523;SDS011;53350;52.210;5.160;2023-02-20T04:51:52;35.35;;;11.85;;
66523;SDS011;53350;52.210;5.160;2023-02-20T04:54:18;22.38;;;9.90;;
66523;SDS011;53350;52.210;5.160;2023-02-20T04:56:45;27.50;;;9.48;;
66523;SDS011;53350;52.210;5.160;2023-02-20T04:59:13;31.90;;;10.23;;
66523;SDS011;53350;52.210;5.160;2023-02-20T05:01:39;26.58;;;11.70;;
66523;SDS011;53350;52.210;5.160;2023-02-20T05:04:07;23.92;;;9.73;;
66523;SDS011;53350;52.210;5.160;2023-02-20T05:06:38;31.15;;;11.60;;
66523;SDS011;53350;52.210;5.160;2023-02-20T05:09:05;26.63;;;10.63;;
66523;SDS011;53350;52.210;5.160;2023-02-20T05:11:34;29.48;;;10.90;;
66523;SDS011;53350;52.210;5.160;2023-02-20T05:14:01;21.88;;;8.55;;
66523;SDS011;53350;52.210;5.160;2023-02-20T05:16:29;28.88;;;11.20;;
66523;SDS011;53350;52.210;5.160;2023-02-20T05:18:55;24.73;;;9.52;;
66523;SDS011;53350;52.210;5.160;2023-02-20T05:21:22;30.60;;;10.35;;
66523;SDS011;53350;52.210;5.160;2023-02-20T05:24:06;27.92;;;9.63;;
66523;SDS011;53350;52.210;5.160;2023-02-20T05:26:32;32.80;;;9.95;;
66523;SDS011;53350;52.210;5.160;2023-02-20T05:28:59;20.27;;;7.72;;
66523;SDS011;53350;52.210;5.160;2023-02-20T05:31:25;25.02;;;7.70;;
66523;SDS011;53350;52.210;5.160;2023-02-20T05:33:53;17.38;;;6.43;;
66523;SDS011;53350;52.210;5.160;2023-02-20T05:36:19;29.10;;;10.85;;
66523;SDS011;53350;52.210;5.160;2023-02-20T05:38:46;21.80;;;9.07;;
66523;SDS011;53350;52.210;5.160;2023-02-20T05:41:13;26.08;;;10.50;;
66523;SDS011;53350;52.210;5.160;2023-02-20T05:43:40;28.30;;;10.52;;
66523;SDS011;53350;52.210;5.160;2023-02-20T05:46:06;19.90;;;7.93;;
66523;SDS011;53350;52.210;5.160;2023-02-20T05:48:32;26.10;;;9.15;;
66523;SDS011;53350;52.210;5.160;2023-02-20T05:51:00;28.73;;;8.40;;
66523;SDS011;53350;52.210;5.160;2023-02-20T05:53:27;27.42;;;10.23;;
66523;SDS011;53350;52.210;5.160;2023-02-20T05:55:54;18.60;;;8.38;;
66523;SDS011;53350;52.210;5.160;2023-02-20T05:58:21;26.92;;;9.95;;
66523;SDS011;53350;52.210;5.160;2023-02-20T06:00:47;18.70;;;7.60;;
66523;SDS011;53350;52.210;5.160;2023-02-20T06:03:13;25.05;;;9.30;;
66523;SDS011;53350;52.210;5.160;2023-02-20T06:05:40;22.20;;;7.28;;
66523;SDS011;53350;52.210;5.160;2023-02-20T06:08:08;15.90;;;6.68;;
66523;SDS011;53350;52.210;5.160;2023-02-20T06:10:35;29.88;;;11.20;;
66523;SDS011;53350;52.210;5.160;2023-02-20T06:13:02;23.95;;;8.55;;
66523;SDS011;53350;52.210;5.160;2023-02-20T06:15:28;23.52;;;8.32;;
66523;SDS011;53350;52.210;5.160;2023-02-20T06:17:54;33.35;;;10.75;;
66523;SDS011;53350;52.210;5.160;2023-02-20T06:20:21;26.67;;;10.30;;
66523;SDS011;53350;52.210;5.160;2023-02-20T06:22:48;28.23;;;10.57;;
66523;SDS011;53350;52.210;5.160;2023-02-20T06:25:16;21.73;;;9.38;;
66523;SDS011;53350;52.210;5.160;2023-02-20T06:27:42;21.42;;;9.23;;
66523;SDS011;53350;52.210;5.160;2023-02-20T06:30:09;23.92;;;9.02;;
66523;SDS011;53350;52.210;5.160;2023-02-20T06:32:36;26.87;;;10.07;;
66523;SDS011;53350;52.210;5.160;2023-02-20T06:35:03;18.85;;;9.25;;
66523;SDS011;53350;52.210;5.160;2023-02-20T06:37:30;22.67;;;9.98;;
66523;SDS011;53350;52.210;5.160;2023-02-20T06:39:56;24.23;;;9.38;;
66523;SDS011;53350;52.210;5.160;2023-02-20T06:42:24;28.63;;;10.48;;
66523;SDS011;53350;52.210;5.160;2023-02-20T06:44:51;22.05;;;8.38;;
66523;SDS011;53350;52.210;5.160;2023-02-20T06:47:17;24.80;;;10.18;;
66523;SDS011;53350;52.210;5.160;2023-02-20T06:49:44;16.33;;;7.15;;
66523;SDS011;53350;52.210;5.160;2023-02-20T06:52:11;24.08;;;7.50;;
66523;SDS011;53350;52.210;5.160;2023-02-20T06:54:38;28.02;;;8.55;;
66523;SDS011;53350;52.210;5.160;2023-02-20T06:57:05;22.15;;;9.63;;
66523;SDS011;53350;52.210;5.160;2023-02-20T06:59:33;20.60;;;7.40;;
66523;SDS011;53350;52.210;5.160;2023-02-20T07:02:03;27.33;;;9.32;;
66523;SDS011;53350;52.210;5.160;2023-02-20T07:04:30;25.73;;;8.05;;
66523;SDS011;53350;52.210;5.160;2023-02-20T07:06:56;28.65;;;9.80;;
66523;SDS011;53350;52.210;5.160;2023-02-20T07:09:23;16.80;;;6.18;;
66523;SDS011;53350;52.210;5.160;2023-02-20T07:11:50;20.10;;;8.32;;
66523;SDS011;53350;52.210;5.160;2023-02-20T07:14:17;22.50;;;8.13;;
66523;SDS011;53350;52.210;5.160;2023-02-20T07:16:45;29.48;;;9.85;;
66523;SDS011;53350;52.210;5.160;2023-02-20T07:19:12;24.95;;;9.05;;
66523;SDS011;53350;52.210;5.160;2023-02-20T07:21:38;25.83;;;9.45;;
66523;SDS011;53350;52.210;5.160;2023-02-20T07:24:05;26.17;;;8.73;;
66523;SDS011;53350;52.210;5.160;2023-02-20T07:26:32;23.95;;;9.38;;
66523;SDS011;53350;52.210;5.160;2023-02-20T07:31:27;22.88;;;7.45;;
66523;SDS011;53350;52.210;5.160;2023-02-20T07:33:55;14.75;;;4.65;;
66523;SDS011;53350;52.210;5.160;2023-02-20T07:36:22;18.85;;;6.63;;
66523;SDS011;53350;52.210;5.160;2023-02-20T07:38:52;17.25;;;6.95;;
66523;SDS011;53350;52.210;5.160;2023-02-20T07:41:20;23.48;;;7.50;;
66523;SDS011;53350;52.210;5.160;2023-02-20T07:43:46;29.67;;;7.05;;
66523;SDS011;53350;52.210;5.160;2023-02-20T07:46:12;25.00;;;8.30;;
66523;SDS011;53350;52.210;5.160;2023-02-20T07:48:39;22.73;;;7.80;;
66523;SDS011;53350;52.210;5.160;2023-02-20T07:51:07;20.30;;;6.40;;
66523;SDS011;53350;52.210;5.160;2023-02-20T07:53:33;20.00;;;7.50;;
66523;SDS011;53350;52.210;5.160;2023-02-20T07:56:00;26.00;;;7.18;;
66523;SDS011;53350;52.210;5.160;2023-02-20T07:58:26;19.25;;;6.72;;
66523;SDS011;53350;52.210;5.160;2023-02-20T08:00:53;16.92;;;5.88;;
66523;SDS011;53350;52.210;5.160;2023-02-20T08:03:19;31.05;;;7.60;;
66523;SDS011;53350;52.210;5.160;2023-02-20T08:05:45;12.23;;;5.15;;
66523;SDS011;53350;52.210;5.160;2023-02-20T08:08:13;22.63;;;7.65;;
66523;SDS011;53350;52.210;5.160;2023-02-20T08:10:40;18.35;;;6.43;;
66523;SDS011;53350;52.210;5.160;2023-02-20T08:13:06;16.20;;;5.35;;
66523;SDS011;53350;52.210;5.160;2023-02-20T08:15:32;16.50;;;6.60;;
66523;SDS011;53350;52.210;5.160;2023-02-20T08:17:59;17.80;;;4.97;;
66523;SDS011;53350;52.210;5.160;2023-02-20T08:20:25;17.75;;;6.35;;
66523;SDS011;53350;52.210;5.160;2023-02-20T08:22:52;17.67;;;6.15;;
66523;SDS011;53350;52.210;5.160;2023-02-20T08:25:19;22.70;;;6.82;;
66523;SDS011;53350;52.210;5.160;2023-02-20T08:27:46;14.40;;;4.47;;
66523;SDS011;53350;52.210;5.160;2023-02-20T08:30:15;22.02;;;7.97;;
66523;SDS011;53350;52.210;5.160;2023-02-20T08:32:43;21.70;;;6.85;;
66523;SDS011;53350;52.210;5.160;2023-02-20T08:35:10;15.20;;;5.38;;
66523;SDS011;53350;52.210;5.160;2023-02-20T08:37:36;17.08;;;6.85;;
66523;SDS011;53350;52.210;5.160;2023-02-20T08:40:03;20.33;;;6.45;;
66523;SDS011;53350;52.210;5.160;2023-02-20T08:42:34;32.50;;;6.90;;
66523;SDS011;53350;52.210;5.160;2023-02-20T08:45:00;22.08;;;7.65;;
66523;SDS011;53350;52.210;5.160;2023-02-20T08:47:26;18.75;;;6.20;;
66523;SDS011;53350;52.210;5.160;2023-02-20T08:49:53;16.77;;;7.28;;
66523;SDS011;53350;52.210;5.160;2023-02-20T08:52:19;22.42;;;8.48;;
66523;SDS011;53350;52.210;5.160;2023-02-20T08:54:46;34.00;;;8.45;;
66523;SDS011;53350;52.210;5.160;2023-02-20T08:57:12;17.63;;;6.50;;
66523;SDS011;53350;52.210;5.160;2023-02-20T08:59:40;20.88;;;7.25;;
66523;SDS011;53350;52.210;5.160;2023-02-20T09:02:07;29.52;;;8.13;;
66523;SDS011;53350;52.210;5.160;2023-02-20T09:04:41;14.18;;;5.95;;
66523;SDS011;53350;52.210;5.160;2023-02-20T09:07:08;25.60;;;8.53;;
66523;SDS011;53350;52.210;5.160;2023-02-20T09:09:34;23.05;;;8.98;;
66523;SDS011;53350;52.210;5.160;2023-02-20T09:12:01;21.83;;;10.27;;
66523;SDS011;53350;52.210;5.160;2023-02-20T09:14:27;22.15;;;8.82;;
66523;SDS011;53350;52.210;5.160;2023-02-20T09:16:55;24.00;;;10.60;;
66523;SDS011;53350;52.210;5.160;2023-02-20T09:19:21;22.23;;;8.07;;
66523;SDS011;53350;52.210;5.160;2023-02-20T09:21:48;25.83;;;9.73;;
66523;SDS011;53350;52.210;5.160;2023-02-20T09:24:15;21.73;;;9.18;;
66523;SDS011;53350;52.210;5.160;2023-02-20T09:26:42;22.30;;;8.73;;
66523;SDS011;53350;52.210;5.160;2023-02-20T09:29:08;20.77;;;8.88;;
66523;SDS011;53350;52.210;5.160;2023-02-20T09:31:35;19.83;;;9.02;;
66523;SDS011;53350;52.210;5.160;2023-02-20T09:34:03;23.95;;;7.78;;
66523;SDS011;53350;52.210;5.160;2023-02-20T09:36:29;16.52;;;7.68;;
66523;SDS011;53350;52.210;5.160;2023-02-20T09:38:55;18.42;;;8.02;;
66523;SDS011;53350;52.210;5.160;2023-02-20T09:41:25;19.77;;;7.40;;
66523;SDS011;53350;52.210;5.160;2023-02-20T09:44:02;9.63;;;5.05;;
66523;SDS011;53350;52.210;5.160;2023-02-20T09:46:37;16.33;;;8.15;;
66523;SDS011;53350;52.210;5.160;2023-02-20T09:49:07;16.83;;;7.30;;
66523;SDS011;53350;52.210;5.160;2023-02-20T09:51:39;16.27;;;7.18;;
66523;SDS011;53350;52.210;5.160;2023-02-20T09:54:09;15.00;;;5.72;;
66523;SDS011;53350;52.210;5.160;2023-02-20T09:56:41;19.20;;;6.88;;
66523;SDS011;53350;52.210;5.160;2023-02-20T09:59:12;15.52;;;5.80;;
66523;SDS011;53350;52.210;5.160;2023-02-20T10:01:42;17.40;;;5.70;;
66523;SDS011;53350;52.210;5.160;2023-02-20T10:04:21;19.42;;;6.95;;
66523;SDS011;53350;52.210;5.160;2023-02-20T10:06:52;15.13;;;7.28;;
66523;SDS011;53350;52.210;5.160;2023-02-20T10:09:25;14.77;;;5.93;;
66523;SDS011;53350;52.210;5.160;2023-02-20T10:11:55;15.30;;;6.28;;
66523;SDS011;53350;52.210;5.160;2023-02-20T10:17:19;16.85;;;5.97;;
66523;SDS011;53350;52.210;5.160;2023-02-20T10:19:57;13.10;;;4.65;;
66523;SDS011;53350;52.210;5.160;2023-02-20T10:22:29;15.60;;;5.05;;
66523;SDS011;53350;52.210;5.160;2023-02-20T10:25:01;14.30;;;6.20;;
66523;SDS011;53350;52.210;5.160;2023-02-20T10:27:38;13.50;;;3.80;;
66523;SDS011;53350;52.210;5.160;2023-02-20T10:30:14;16.35;;;6.40;;
66523;SDS011;53350;52.210;5.160;2023-02-20T10:32:44;13.38;;;5.15;;
66523;SDS011;53350;52.210;5.160;2023-02-20T10:35:17;14.48;;;5.88;;
66523;SDS011;53350;52.210;5.160;2023-02-20T10:37:47;9.93;;;4.38;;
66523;SDS011;53350;52.210;5.160;2023-02-20T10:40:19;17.73;;;5.93;;
66523;SDS011;53350;52.210;5.160;2023-02-20T10:42:51;12.40;;;4.15;;
66523;SDS011;53350;52.210;5.160;2023-02-20T10:45:26;12.18;;;4.82;;
66523;SDS011;53350;52.210;5.160;2023-02-20T10:48:05;13.40;;;5.50;;
66523;SDS011;53350;52.210;5.160;2023-02-20T10:50:35;10.25;;;4.47;;
66523;SDS011;53350;52.210;5.160;2023-02-20T10:53:08;16.90;;;5.90;;
66523;SDS011;53350;52.210;5.160;2023-02-20T10:55:42;14.90;;;5.97;;
66523;SDS011;53350;52.210;5.160;2023-02-20T10:58:15;9.88;;;3.63;;
66523;SDS011;53350;52.210;5.160;2023-02-20T11:00:46;10.80;;;5.25;;
66523;SDS011;53350;52.210;5.160;2023-02-20T11:03:16;15.80;;;6.78;;
66523;SDS011;53350;52.210;5.160;2023-02-20T11:05:49;10.80;;;4.35;;
66523;SDS011;53350;52.210;5.160;2023-02-20T11:08:18;14.32;;;5.63;;
66523;SDS011;53350;52.210;5.160;2023-02-20T11:10:46;13.82;;;5.40;;
66523;SDS011;53350;52.210;5.160;2023-02-20T11:13:14;13.77;;;4.95;;
66523;SDS011;53350;52.210;5.160;2023-02-20T11:15:43;16.20;;;5.82;;
66523;SDS011;53350;52.210;5.160;2023-02-20T11:18:15;13.40;;;6.20;;
66523;SDS011;53350;52.210;5.160;2023-02-20T11:20:51;13.18;;;5.32;;
66523;SDS011;53350;52.210;5.160;2023-02-20T11:23:37;12.80;;;5.85;;
66523;SDS011;53350;52.210;5.160;2023-02-20T11:26:12;11.10;;;4.30;;
66523;SDS011;53350;52.210;5.160;2023-02-20T11:28:40;10.93;;;4.65;;
66523;SDS011;53350;52.210;5.160;2023-02-20T11:31:08;12.10;;;4.47;;
66523;SDS011;53350;52.210;5.160;2023-02-20T11:33:35;10.48;;;3.92;;
66523;SDS011;53350;52.210;5.160;2023-02-20T11:36:11;12.27;;;3.05;;
66523;SDS011;53350;52.210;5.160;2023-02-20T11:38:41;14.13;;;4.25;;
66523;SDS011;53350;52.210;5.160;2023-02-20T11:41:21;15.95;;;4.53;;
66523;SDS011;53350;52.210;5.160;2023-02-20T11:44:05;6.50;;;3.05;;
66523;SDS011;53350;52.210;5.160;2023-02-20T11:46:44;12.02;;;4.80;;
66523;SDS011;53350;52.210;5.160;2023-02-20T11:49:21;12.63;;;3.88;;
66523;SDS011;53350;52.210;5.160;2023-02-20T11:51:51;14.25;;;5.38;;
66523;SDS011;53350;52.210;5.160;2023-02-20T11:54:19;11.73;;;3.78;;
66523;SDS011;53350;52.210;5.160;2023-02-20T11:56:59;6.97;;;2.03;;
66523;SDS011;53350;52.210;5.160;2023-02-20T11:59:30;10.68;;;3.75;;
66523;SDS011;53350;52.210;5.160;2023-02-20T12:02:12;9.20;;;4.18;;
66523;SDS011;53350;52.210;5.160;2023-02-20T12:05:06;10.43;;;4.82;;
66523;SDS011;53350;52.210;5.160;2023-02-20T12:07:39;12.82;;;3.80;;
66523;SDS011;53350;52.210;5.160;2023-02-20T12:10:15;12.57;;;5.22;;
66523;SDS011;53350;52.210;5.160;2023-02-20T12:12:48;11.27;;;4.72;;
66523;SDS011;53350;52.210;5.160;2023-02-20T12:15:16;11.95;;;4.25;;
66523;SDS011;53350;52.210;5.160;2023-02-20T12:21:02;9.23;;;3.10;;
66523;SDS011;53350;52.210;5.160;2023-02-20T12:23:38;11.43;;;4.40;;
66523;SDS011;53350;52.210;5.160;2023-02-20T12:26:18;6.18;;;2.70;;
66523;SDS011;53350;52.210;5.160;2023-02-20T12:28:58;9.43;;;3.33;;
66523;SDS011;53350;52.210;5.160;2023-02-20T12:31:34;12.95;;;4.10;;
66523;SDS011;53350;52.210;5.160;2023-02-20T12:34:16;20.75;;;4.25;;
66523;SDS011;53350;52.210;5.160;2023-02-20T12:36:50;7.97;;;2.70;;
66523;SDS011;53350;52.210;5.160;2023-02-20T12:39:24;12.45;;;4.00;;
66523;SDS011;53350;52.210;5.160;2023-02-20T12:42:01;14.15;;;4.05;;
66523;SDS011;53350;52.210;5.160;2023-02-20T12:44:36;11.48;;;3.45;;
66523;SDS011;53350;52.210;5.160;2023-02-20T12:47:15;9.95;;;3.30;;
66523;SDS011;53350;52.210;5.160;2023-02-20T12:49:54;12.02;;;3.38;;
66523;SDS011;53350;52.210;5.160;2023-02-20T12:52:35;10.30;;;3.72;;
66523;SDS011;53350;52.210;5.160;2023-02-20T12:55:23;11.13;;;2.40;;
66523;SDS011;53350;52.210;5.160;2023-02-20T12:58:03;16.40;;;3.08;;
66523;SDS011;53350;52.210;5.160;2023-02-20T13:00:39;12.48;;;3.88;;
66523;SDS011;53350;52.210;5.160;2023-02-20T13:03:12;12.13;;;3.50;;
66523;SDS011;53350;52.210;5.160;2023-02-20T13:05:44;17.30;;;3.83;;
66523;SDS011;53350;52.210;5.160;2023-02-20T13:08:13;13.95;;;4.32;;
66523;SDS011;53350;52.210;5.160;2023-02-20T13:10:49;15.55;;;4.05;;
66523;SDS011;53350;52.210;5.160;2023-02-20T13:13:18;20.08;;;3.92;;
66523;SDS011;53350;52.210;5.160;2023-02-20T13:15:47;12.38;;;3.00;;
66523;SDS011;53350;52.210;5.160;2023-02-20T13:18:20;8.05;;;2.10;;
66523;SDS011;53350;52.210;5.160;2023-02-20T13:20:52;17.33;;;3.20;;
66523;SDS011;53350;52.210;5.160;2023-02-20T13:23:26;12.52;;;3.42;;
66523;SDS011;53350;52.210;5.160;2023-02-20T13:25:57;10.88;;;3.15;;
66523;SDS011;53350;52.210;5.160;2023-02-20T13:31:16;8.15;;;2.85;;
66523;SDS011;53350;52.210;5.160;2023-02-20T13:33:45;10.02;;;3.78;;
66523;SDS011;53350;52.210;5.160;2023-02-20T13:36:14;13.63;;;3.85;;
66523;SDS011;53350;52.210;5.160;2023-02-20T13:38:56;13.02;;;4.00;;
66523;SDS011;53350;52.210;5.160;2023-02-20T13:48:15;10.60;;;3.58;;
66523;SDS011;53350;52.210;5.160;2023-02-20T13:50:42;11.85;;;4.43;;
66523;SDS011;53350;52.210;5.160;2023-02-20T13:53:09;10.52;;;3.63;;
66523;SDS011;53350;52.210;5.160;2023-02-20T13:55:36;9.73;;;3.28;;
66523;SDS011;53350;52.210;5.160;2023-02-20T13:58:12;11.13;;;3.78;;
66523;SDS011;53350;52.210;5.160;2023-02-20T14:00:43;7.28;;;3.47;;
66523;SDS011;53350;52.210;5.160;2023-02-20T14:03:12;9.35;;;3.53;;
66523;SDS011;53350;52.210;5.160;2023-02-20T14:05:43;13.95;;;4.25;;
66523;SDS011;53350;52.210;5.160;2023-02-20T14:08:15;12.13;;;4.82;;
66523;SDS011;53350;52.210;5.160;2023-02-20T14:10:42;9.50;;;4.30;;
66523;SDS011;53350;52.210;5.160;2023-02-20T14:13:14;9.85;;;3.47;;
66523;SDS011;53350;52.210;5.160;2023-02-20T14:15:44;12.02;;;3.58;;
66523;SDS011;53350;52.210;5.160;2023-02-20T14:18:13;10.60;;;3.88;;
66523;SDS011;53350;52.210;5.160;2023-02-20T14:20:42;11.10;;;4.28;;
66523;SDS011;53350;52.210;5.160;2023-02-20T14:23:16;15.75;;;4.00;;
66523;SDS011;53350;52.210;5.160;2023-02-20T14:25:51;8.10;;;3.50;;
66523;SDS011;53350;52.210;5.160;2023-02-20T14:28:24;11.43;;;3.33;;
66523;SDS011;53350;52.210;5.160;2023-02-20T14:31:17;9.38;;;3.78;;
66523;SDS011;53350;52.210;5.160;2023-02-20T14:33:46;11.43;;;3.63;;
66523;SDS011;53350;52.210;5.160;2023-02-20T14:36:18;13.30;;;3.72;;
66523;SDS011;53350;52.210;5.160;2023-02-20T14:38:55;11.73;;;4.10;;
66523;SDS011;53350;52.210;5.160;2023-02-20T14:41:49;9.30;;;3.40;;
66523;SDS011;53350;52.210;5.160;2023-02-20T14:44:18;11.93;;;4.15;;
66523;SDS011;53350;52.210;5.160;2023-02-20T14:46:45;16.90;;;4.28;;
66523;SDS011;53350;52.210;5.160;2023-02-20T14:49:13;12.75;;;3.42;;
66523;SDS011;53350;52.210;5.160;2023-02-20T14:51:40;11.18;;;4.38;;
66523;SDS011;53350;52.210;5.160;2023-02-20T14:54:18;19.23;;;4.22;;
66523;SDS011;53350;52.210;5.160;2023-02-20T14:56:50;11.00;;;4.32;;
66523;SDS011;53350;52.210;5.160;2023-02-20T14:59:26;6.57;;;2.72;;
66523;SDS011;53350;52.210;5.160;2023-02-20T15:01:55;12.15;;;4.43;;
66523;SDS011;53350;52.210;5.160;2023-02-20T15:04:23;10.18;;;3.17;;
66523;SDS011;53350;52.210;5.160;2023-02-20T15:09:18;11.80;;;3.60;;
66523;SDS011;53350;52.210;5.160;2023-02-20T15:11:46;14.98;;;4.13;;
66523;SDS011;53350;52.210;5.160;2023-02-20T15:14:19;12.05;;;3.75;;
66523;SDS011;53350;52.210;5.160;2023-02-20T15:16:49;10.57;;;3.83;;
66523;SDS011;53350;52.210;5.160;2023-02-20T15:19:32;13.20;;;3.58;;
66523;SDS011;53350;52.210;5.160;2023-02-20T15:22:02;14.80;;;4.50;;